sensor_id;sensor_type;location;lat;lon;timestamp;temperature;humidity
13205;DHT22;6667;52.634;9.226;2023-06-14T06:38:34;21.00;99.90
13205;DHT22;6667;52.634;9.226;2023-06-14T06:41:02;20.60;99.90
13205;DHT22;6667;52.634;9.226;2023-06-14T06:43:29;20.60;99.90
13205;DHT22;6667;52.634;9.226;2023-06-14T06:45:57;21.20;99.90
13205;DHT22;6667;52.634;9.226;2023-06-14T06:48:24;21.50;99.90
13205;DHT22;6667;52.634;9.226;2023-06-14T06:50:55;21.40;99.90
13205;DHT22;6667;52.634;9.226;2023-06-14T06:53:22;21.60;99.90
13205;DHT22;6667;52.634;9.226;2023-06-14T06:55:50;21.50;99.90
13205;DHT22;6667;52.634;9.226;2023-06-14T06:58:16;21.90;99.90
13205;DHT22;6667;52.634;9.226;2023-06-14T07:00:43;22.40;99.90
13205;DHT22;6667;52.634;9.226;2023-06-14T07:03:10;21.40;99.90
13205;DHT22;6667;52.634;9.226;2023-06-14T07:05:37;22.90;99.90
13205;DHT22;6667;52.634;9.226;2023-06-14T07:08:04;22.70;99.90
13205;DHT22;6667;52.634;9.226;2023-06-14T07:10:30;23.20;99.90
13205;DHT22;6667;52.634;9.226;2023-06-14T07:12:58;23.80;99.90
13205;DHT22;6667;52.634;9.226;2023-06-14T07:15:25;24.20;99.90
13205;DHT22;6667;52.634;9.226;2023-06-14T07:17:52;23.70;99.90
13205;DHT22;6667;52.634;9.226;2023-06-14T07:20:18;22.80;99.90
13205;DHT22;6667;52.634;9.226;2023-06-14T07:22:47;23.20;99.90
13205;DHT22;6667;52.634;9.226;2023-06-14T07:25:14;24.80;99.90
13205;DHT22;6667;52.634;9.226;2023-06-14T07:27:40;24.80;99.90
13205;DHT22;6667;52.634;9.226;2023-06-14T07:30:09;25.10;99.90
13205;DHT22;6667;52.634;9.226;2023-06-14T07:32:36;25.10;99.90
13205;DHT22;6667;52.634;9.226;2023-06-14T07:35:03;23.90;99.90
13205;DHT22;6667;52.634;9.226;2023-06-14T07:37:30;23.40;99.90
13205;DHT22;6667;52.634;9.226;2023-06-14T07:39:57;24.50;99.90
13205;DHT22;6667;52.634;9.226;2023-06-14T07:42:23;24.30;99.90
13205;DHT22;6667;52.634;9.226;2023-06-14T07:44:50;24.60;99.90
13205;DHT22;6667;52.634;9.226;2023-06-14T07:47:19;23.90;99.90
13205;DHT22;6667;52.634;9.226;2023-06-14T07:49:45;24.90;99.90
13205;DHT22;6667;52.634;9.226;2023-06-14T07:52:12;24.90;99.90
13205;DHT22;6667;52.634;9.226;2023-06-14T07:54:38;24.20;99.90
13205;DHT22;6667;52.634;9.226;2023-06-14T07:57:06;24.80;99.90
13205;DHT22;6667;52.634;9.226;2023-06-14T07:59:34;24.30;99.90
13205;DHT22;6667;52.634;9.226;2023-06-14T08:02:00;23.70;99.90
13205;DHT22;6667;52.634;9.226;2023-06-14T08:04:28;23.80;99.90
13205;DHT22;6667;52.634;9.226;2023-06-14T08:06:55;24.00;99.90
13205;DHT22;6667;52.634;9.226;2023-06-14T08:09:22;25.50;99.90
13205;DHT22;6667;52.634;9.226;2023-06-14T08:11:49;26.30;99.90
13205;DHT22;6667;52.634;9.226;2023-06-14T08:14:16;26.00;99.90
13205;DHT22;6667;52.634;9.226;2023-06-14T08:16:43;26.20;99.90
13205;DHT22;6667;52.634;9.226;2023-06-14T08:19:09;25.20;99.90
13205;DHT22;6667;52.634;9.226;2023-06-14T08:21:38;26.50;99.90
13205;DHT22;6667;52.634;9.226;2023-06-14T08:24:05;27.00;99.90
13205;DHT22;6667;52.634;9.226;2023-06-14T08:26:32;27.50;99.90
13205;DHT22;6667;52.634;9.226;2023-06-14T08:28:59;27.10;99.90
13205;DHT22;6667;52.634;9.226;2023-06-14T08:31:26;27.20;99.90
13205;DHT22;6667;52.634;9.226;2023-06-14T08:33:52;26.00;99.90
13205;DHT22;6667;52.634;9.226;2023-06-14T08:36:19;25.90;99.90
13205;DHT22;6667;52.634;9.226;2023-06-14T08:38:49;26.20;99.90
13205;DHT22;6667;52.634;9.226;2023-06-14T08:41:21;25.50;99.90
13205;DHT22;6667;52.634;9.226;2023-06-14T08:43:48;25.70;99.90
13205;DHT22;6667;52.634;9.226;2023-06-14T08:46:17;25.30;99.90
13205;DHT22;6667;52.634;9.226;2023-06-14T08:48:46;25.80;99.90
13205;DHT22;6667;52.634;9.226;2023-06-14T08:51:13;24.70;99.90
13205;DHT22;6667;52.634;9.226;2023-06-14T08:53:42;25.60;99.90
13205;DHT22;6667;52.634;9.226;2023-06-14T08:56:11;26.20;99.90
13205;DHT22;6667;52.634;9.226;2023-06-14T08:58:40;26.40;99.90
13205;DHT22;6667;52.634;9.226;2023-06-14T09:01:09;26.80;99.90
13205;DHT22;6667;52.634;9.226;2023-06-14T09:03:37;26.50;99.90
13205;DHT22;6667;52.634;9.226;2023-06-14T09:06:06;25.70;99.90
13205;DHT22;6667;52.634;9.226;2023-06-14T09:08:34;26.30;99.90
13205;DHT22;6667;52.634;9.226;2023-06-14T09:11:01;26.10;99.90
13205;DHT22;6667;52.634;9.226;2023-06-14T09:13:29;25.70;99.90
13205;DHT22;6667;52.634;9.226;2023-06-14T09:15:56;26.00;99.90
13205;DHT22;6667;52.634;9.226;2023-06-14T09:18:34;26.40;99.90
13205;DHT22;6667;52.634;9.226;2023-06-14T09:21:00;26.00;99.90
13205;DHT22;6667;52.634;9.226;2023-06-14T09:23:27;26.70;99.90
13205;DHT22;6667;52.634;9.226;2023-06-14T09:25:54;27.40;99.90
13205;DHT22;6667;52.634;9.226;2023-06-14T09:28:26;28.10;99.90
13205;DHT22;6667;52.634;9.226;2023-06-14T09:30:54;28.50;99.90
13205;DHT22;6667;52.634;9.226;2023-06-14T09:33:21;26.20;99.90
13205;DHT22;6667;52.634;9.226;2023-06-14T09:35:51;26.70;99.90
13205;DHT22;6667;52.634;9.226;2023-06-14T09:38:18;27.60;99.90
13205;DHT22;6667;52.634;9.226;2023-06-14T09:40:44;27.00;99.90
13205;DHT22;6667;52.634;9.226;2023-06-14T09:43:11;27.60;99.90
13205;DHT22;6667;52.634;9.226;2023-06-14T09:45:38;28.30;99.90
13205;DHT22;6667;52.634;9.226;2023-06-14T09:48:07;26.80;99.90
13205;DHT22;6667;52.634;9.226;2023-06-14T09:50:34;26.10;99.90
13205;DHT22;6667;52.634;9.226;2023-06-14T09:53:05;25.50;99.90
13205;DHT22;6667;52.634;9.226;2023-06-14T09:55:34;25.70;99.90
13205;DHT22;6667;52.634;9.226;2023-06-14T09:58:05;25.60;99.90
13205;DHT22;6667;52.634;9.226;2023-06-14T10:00:32;26.70;99.90
13205;DHT22;6667;52.634;9.226;2023-06-14T10:03:03;26.70;99.90
13205;DHT22;6667;52.634;9.226;2023-06-14T10:05:35;27.90;99.90
13205;DHT22;6667;52.634;9.226;2023-06-14T10:08:07;27.40;99.90
13205;DHT22;6667;52.634;9.226;2023-06-14T10:10:34;27.90;99.90
13205;DHT22;6667;52.634;9.226;2023-06-14T10:13:01;28.80;99.90
13205;DHT22;6667;52.634;9.226;2023-06-14T10:15:32;29.00;99.90
13205;DHT22;6667;52.634;9.226;2023-06-14T10:18:09;28.30;99.90
13205;DHT22;6667;52.634;9.226;2023-06-14T10:20:49;27.80;99.90
13205;DHT22;6667;52.634;9.226;2023-06-14T10:23:21;27.70;99.90
13205;DHT22;6667;52.634;9.226;2023-06-14T10:25:50;26.30;99.90
13205;DHT22;6667;52.634;9.226;2023-06-14T10:28:18;26.90;99.90
13205;DHT22;6667;52.634;9.226;2023-06-14T10:31:02;28.00;99.90
13205;DHT22;6667;52.634;9.226;2023-06-14T10:33:29;28.30;99.90
13205;DHT22;6667;52.634;9.226;2023-06-14T10:36:09;29.10;99.90
13205;DHT22;6667;52.634;9.226;2023-06-14T10:38:37;29.60;99.90
13205;DHT22;6667;52.634;9.226;2023-06-14T10:41:04;28.40;99.90
13205;DHT22;6667;52.634;9.226;2023-06-14T10:43:32;28.50;99.90
13205;DHT22;6667;52.634;9.226;2023-06-14T10:46:17;28.10;99.90
13205;DHT22;6667;52.634;9.226;2023-06-14T10:48:47;28.10;99.90
13205;DHT22;6667;52.634;9.226;2023-06-14T10:51:19;28.30;99.90
13205;DHT22;6667;52.634;9.226;2023-06-14T10:53:47;28.10;99.90
13205;DHT22;6667;52.634;9.226;2023-06-14T10:56:26;28.50;99.90
13205;DHT22;6667;52.634;9.226;2023-06-14T10:58:53;28.50;99.90
13205;DHT22;6667;52.634;9.226;2023-06-14T11:01:32;27.80;99.90
13205;DHT22;6667;52.634;9.226;2023-06-14T11:04:07;27.40;99.90
13205;DHT22;6667;52.634;9.226;2023-06-14T11:06:45;27.30;99.90
13205;DHT22;6667;52.634;9.226;2023-06-14T11:09:47;27.60;99.90
13205;DHT22;6667;52.634;9.226;2023-06-14T11:12:15;27.70;99.90
13205;DHT22;6667;52.634;9.226;2023-06-14T11:14:45;27.30;99.90
13205;DHT22;6667;52.634;9.226;2023-06-14T11:17:12;28.60;99.90
13205;DHT22;6667;52.634;9.226;2023-06-14T11:19:39;28.80;99.90
13205;DHT22;6667;52.634;9.226;2023-06-14T11:22:07;27.40;99.90
13205;DHT22;6667;52.634;9.226;2023-06-14T11:24:34;27.60;99.90
13205;DHT22;6667;52.634;9.226;2023-06-14T11:27:01;27.50;99.90
13205;DHT22;6667;52.634;9.226;2023-06-14T11:29:29;27.00;99.90
13205;DHT22;6667;52.634;9.226;2023-06-14T11:31:55;26.70;99.90
13205;DHT22;6667;52.634;9.226;2023-06-14T11:34:22;27.20;99.90
13205;DHT22;6667;52.634;9.226;2023-06-14T11:36:49;27.40;99.90
13205;DHT22;6667;52.634;9.226;2023-06-14T11:39:17;27.30;99.90
13205;DHT22;6667;52.634;9.226;2023-06-14T11:41:44;27.70;99.90
13205;DHT22;6667;52.634;9.226;2023-06-14T11:44:11;28.00;99.90
13205;DHT22;6667;52.634;9.226;2023-06-14T11:46:38;28.00;99.90
13205;DHT22;6667;52.634;9.226;2023-06-14T11:49:07;28.00;99.90
13205;DHT22;6667;52.634;9.226;2023-06-14T11:51:35;28.40;99.90
13205;DHT22;6667;52.634;9.226;2023-06-14T11:54:02;27.50;99.90
13205;DHT22;6667;52.634;9.226;2023-06-14T11:56:31;26.80;99.90
13205;DHT22;6667;52.634;9.226;2023-06-14T11:58:58;26.90;99.90
13205;DHT22;6667;52.634;9.226;2023-06-14T12:01:25;26.90;99.90
13205;DHT22;6667;52.634;9.226;2023-06-14T12:03:53;27.10;99.90
13205;DHT22;6667;52.634;9.226;2023-06-14T12:06:26;27.50;99.90
13205;DHT22;6667;52.634;9.226;2023-06-14T12:08:55;27.20;99.90
13205;DHT22;6667;52.634;9.226;2023-06-14T12:11:22;26.60;99.90
13205;DHT22;6667;52.634;9.226;2023-06-14T12:13:50;25.90;99.90
13205;DHT22;6667;52.634;9.226;2023-06-14T12:16:17;25.70;99.90
13205;DHT22;6667;52.634;9.226;2023-06-14T12:18:43;25.70;99.90
13205;DHT22;6667;52.634;9.226;2023-06-14T12:21:11;25.70;99.90
13205;DHT22;6667;52.634;9.226;2023-06-14T12:23:45;25.60;99.90
13205;DHT22;6667;52.634;9.226;2023-06-14T12:26:15;25.20;99.90
13205;DHT22;6667;52.634;9.226;2023-06-14T12:28:42;25.50;99.90
13205;DHT22;6667;52.634;9.226;2023-06-14T12:31:11;25.80;99.90
13205;DHT22;6667;52.634;9.226;2023-06-14T12:33:38;26.10;99.90
13205;DHT22;6667;52.634;9.226;2023-06-14T12:36:07;26.10;99.90
13205;DHT22;6667;52.634;9.226;2023-06-14T12:38:34;26.60;99.90
13205;DHT22;6667;52.634;9.226;2023-06-14T12:41:01;26.90;99.90
13205;DHT22;6667;52.634;9.226;2023-06-14T12:43:28;26.50;99.90
13205;DHT22;6667;52.634;9.226;2023-06-14T12:45:54;26.80;99.90
13205;DHT22;6667;52.634;9.226;2023-06-14T12:48:22;26.80;99.90
13205;DHT22;6667;52.634;9.226;2023-06-14T12:50:49;26.70;99.90
13205;DHT22;6667;52.634;9.226;2023-06-14T12:53:16;26.80;99.90
13205;DHT22;6667;52.634;9.226;2023-06-14T12:55:46;26.90;99.90
13205;DHT22;6667;52.634;9.226;2023-06-14T12:58:14;26.90;99.90
13205;DHT22;6667;52.634;9.226;2023-06-14T13:00:46;27.10;99.90
13205;DHT22;6667;52.634;9.226;2023-06-14T13:03:16;26.30;99.90
13205;DHT22;6667;52.634;9.226;2023-06-14T13:05:46;26.50;99.90
13205;DHT22;6667;52.634;9.226;2023-06-14T13:08:14;26.90;99.90
13205;DHT22;6667;52.634;9.226;2023-06-14T13:10:45;26.90;99.90
13205;DHT22;6667;52.634;9.226;2023-06-14T13:13:13;26.80;99.90
13205;DHT22;6667;52.634;9.226;2023-06-14T13:15:41;26.50;99.90
13205;DHT22;6667;52.634;9.226;2023-06-14T13:18:12;26.70;99.90
13205;DHT22;6667;52.634;9.226;2023-06-14T13:20:48;26.50;99.90
13205;DHT22;6667;52.634;9.226;2023-06-14T13:23:17;26.60;99.90
13205;DHT22;6667;52.634;9.226;2023-06-14T13:25:45;26.60;99.90
13205;DHT22;6667;52.634;9.226;2023-06-14T13:28:17;26.40;99.90
13205;DHT22;6667;52.634;9.226;2023-06-14T13:30:47;26.40;99.90
13205;DHT22;6667;52.634;9.226;2023-06-14T13:33:15;26.10;99.90
13205;DHT22;6667;52.634;9.226;2023-06-14T13:35:44;26.10;99.90
13205;DHT22;6667;52.634;9.226;2023-06-14T13:38:17;25.90;99.90
13205;DHT22;6667;52.634;9.226;2023-06-14T13:40:46;26.00;99.90
13205;DHT22;6667;52.634;9.226;2023-06-14T13:43:14;26.10;99.90
13205;DHT22;6667;52.634;9.226;2023-06-14T13:45:42;26.10;99.90
13205;DHT22;6667;52.634;9.226;2023-06-14T13:48:19;26.20;99.90
13205;DHT22;6667;52.634;9.226;2023-06-14T13:50:48;25.80;99.90
13205;DHT22;6667;52.634;9.226;2023-06-14T13:53:18;25.80;99.90
13205;DHT22;6667;52.634;9.226;2023-06-14T13:55:47;25.40;99.90
13205;DHT22;6667;52.634;9.226;2023-06-14T13:58:15;25.60;99.90
13205;DHT22;6667;52.634;9.226;2023-06-14T14:00:46;25.80;99.90
13205;DHT22;6667;52.634;9.226;2023-06-14T14:03:17;26.00;99.90
13205;DHT22;6667;52.634;9.226;2023-06-14T14:05:46;26.00;99.90
13205;DHT22;6667;52.634;9.226;2023-06-14T14:08:25;26.10;99.90
13205;DHT22;6667;52.634;9.226;2023-06-14T14:10:58;26.40;99.90
13205;DHT22;6667;52.634;9.226;2023-06-14T14:13:30;26.50;99.90
13205;DHT22;6667;52.634;9.226;2023-06-14T14:18:51;26.80;99.90
13205;DHT22;6667;52.634;9.226;2023-06-14T14:24:38;25.70;99.90
13205;DHT22;6667;52.634;9.226;2023-06-14T14:27:55;25.90;99.90
13205;DHT22;6667;52.634;9.226;2023-06-14T14:30:38;25.70;99.90
13205;DHT22;6667;52.634;9.226;2023-06-14T14:33:11;25.70;99.90
13205;DHT22;6667;52.634;9.226;2023-06-14T14:35:42;25.70;99.90
13205;DHT22;6667;52.634;9.226;2023-06-14T14:38:23;25.50;99.90
13205;DHT22;6667;52.634;9.226;2023-06-14T14:40:53;25.60;99.90
13205;DHT22;6667;52.634;9.226;2023-06-14T14:44:08;25.70;99.90
13205;DHT22;6667;52.634;9.226;2023-06-14T14:46:45;25.70;99.90
13205;DHT22;6667;52.634;9.226;2023-06-14T14:49:13;25.80;99.90
13205;DHT22;6667;52.634;9.226;2023-06-14T14:51:41;25.90;99.90
13205;DHT22;6667;52.634;9.226;2023-06-14T14:54:18;25.80;99.90
13205;DHT22;6667;52.634;9.226;2023-06-14T14:56:48;25.80;99.90
13205;DHT22;6667;52.634;9.226;2023-06-14T14:59:25;26.00;99.90
13205;DHT22;6667;52.634;9.226;2023-06-14T15:08:50;25.60;99.90
13205;DHT22;6667;52.634;9.226;2023-06-14T15:11:21;25.40;99.90
13205;DHT22;6667;52.634;9.226;2023-06-14T15:13:53;25.10;99.90
13205;DHT22;6667;52.634;9.226;2023-06-14T15:16:37;25.10;99.90
13205;DHT22;6667;52.634;9.226;2023-06-14T15:19:24;25.20;99.90
13205;DHT22;6667;52.634;9.226;2023-06-14T15:21:58;25.20;99.90
13205;DHT22;6667;52.634;9.226;2023-06-14T15:27:48;25.50;99.90
13205;DHT22;6667;52.634;9.226;2023-06-14T15:30:18;25.50;99.90
13205;DHT22;6667;52.634;9.226;2023-06-14T15:32:47;25.40;99.90
13205;DHT22;6667;52.634;9.226;2023-06-14T15:35:20;25.70;99.90
13205;DHT22;6667;52.634;9.226;2023-06-14T15:38:19;25.80;99.90
13205;DHT22;6667;52.634;9.226;2023-06-14T15:40:52;25.70;99.90
13205;DHT22;6667;52.634;9.226;2023-06-14T15:43:21;25.70;99.90
13205;DHT22;6667;52.634;9.226;2023-06-14T15:45:51;26.00;99.90
13205;DHT22;6667;52.634;9.226;2023-06-14T15:48:19;25.60;99.90
13205;DHT22;6667;52.634;9.226;2023-06-14T15:51:03;25.50;99.90
13205;DHT22;6667;52.634;9.226;2023-06-14T15:53:31;25.40;99.90
13205;DHT22;6667;52.634;9.226;2023-06-14T15:56:00;25.40;99.90
13205;DHT22;6667;52.634;9.226;2023-06-14T15:59:00;25.20;99.90
13205;DHT22;6667;52.634;9.226;2023-06-14T16:01:38;25.30;99.90
13205;DHT22;6667;52.634;9.226;2023-06-14T16:04:07;25.40;99.90
13205;DHT22;6667;52.634;9.226;2023-06-14T16:06:49;25.20;99.90
13205;DHT22;6667;52.634;9.226;2023-06-14T16:09:17;25.10;99.90
13205;DHT22;6667;52.634;9.226;2023-06-14T16:11:45;25.10;99.90
13205;DHT22;6667;52.634;9.226;2023-06-14T16:14:16;24.80;99.90
13205;DHT22;6667;52.634;9.226;2023-06-14T16:16:45;24.80;99.90
13205;DHT22;6667;52.634;9.226;2023-06-14T16:19:13;24.80;99.90
13205;DHT22;6667;52.634;9.226;2023-06-14T16:21:40;24.50;99.90
13205;DHT22;6667;52.634;9.226;2023-06-14T16:24:08;24.60;99.90
13205;DHT22;6667;52.634;9.226;2023-06-14T16:26:40;24.70;99.90
13205;DHT22;6667;52.634;9.226;2023-06-14T16:29:08;24.80;99.90
13205;DHT22;6667;52.634;9.226;2023-06-14T16:31:35;24.90;99.90
13205;DHT22;6667;52.634;9.226;2023-06-14T16:34:04;25.10;99.90
13205;DHT22;6667;52.634;9.226;2023-06-14T16:36:37;25.10;99.90
13205;DHT22;6667;52.634;9.226;2023-06-14T16:39:05;25.10;99.90
13205;DHT22;6667;52.634;9.226;2023-06-14T16:41:33;25.10;99.90
13205;DHT22;6667;52.634;9.226;2023-06-14T16:44:01;25.10;99.90
13205;DHT22;6667;52.634;9.226;2023-06-14T16:46:31;25.00;99.90
13205;DHT22;6667;52.634;9.226;2023-06-14T16:49:00;24.90;99.90
13205;DHT22;6667;52.634;9.226;2023-06-14T16:51:29;25.00;99.90
13205;DHT22;6667;52.634;9.226;2023-06-14T16:53:57;24.80;99.90
13205;DHT22;6667;52.634;9.226;2023-06-14T16:56:25;24.80;99.90
13205;DHT22;6667;52.634;9.226;2023-06-14T16:58:53;24.50;99.90
13205;DHT22;6667;52.634;9.226;2023-06-14T17:01:21;24.50;99.90
13205;DHT22;6667;52.634;9.226;2023-06-14T17:03:49;24.60;99.90
13205;DHT22;6667;52.634;9.226;2023-06-14T17:06:16;24.50;99.90
13205;DHT22;6667;52.634;9.226;2023-06-14T17:08:48;24.40;99.90
13205;DHT22;6667;52.634;9.226;2023-06-14T17:11:16;24.50;99.90
13205;DHT22;6667;52.634;9.226;2023-06-14T17:13:44;24.60;99.90
13205;DHT22;6667;52.634;9.226;2023-06-14T17:16:12;24.50;99.90
13205;DHT22;6667;52.634;9.226;2023-06-14T17:18:41;24.50;99.90
13205;DHT22;6667;52.634;9.226;2023-06-14T17:21:08;24.50;99.90
13205;DHT22;6667;52.634;9.226;2023-06-14T17:23:39;24.40;99.90
13205;DHT22;6667;52.634;9.226;2023-06-14T17:28:58;24.30;99.90
13205;DHT22;6667;52.634;9.226;2023-06-14T17:31:48;24.40;99.90
13205;DHT22;6667;52.634;9.226;2023-06-14T17:34:15;24.50;99.90
13205;DHT22;6667;52.634;9.226;2023-06-14T17:36:44;24.40;99.90
13205;DHT22;6667;52.634;9.226;2023-06-14T17:39:13;24.40;99.90
13205;DHT22;6667;52.634;9.226;2023-06-14T17:41:42;24.40;99.90
13205;DHT22;6667;52.634;9.226;2023-06-14T17:44:11;24.20;99.90
13205;DHT22;6667;52.634;9.226;2023-06-14T17:46:39;24.20;99.90
13205;DHT22;6667;52.634;9.226;2023-06-14T17:49:07;24.10;99.90
13205;DHT22;6667;52.634;9.226;2023-06-14T17:51:34;24.00;99.90
13205;DHT22;6667;52.634;9.226;2023-06-14T17:54:03;23.90;99.90
13205;DHT22;6667;52.634;9.226;2023-06-14T17:56:31;23.90;99.90
13205;DHT22;6667;52.634;9.226;2023-06-14T17:59:01;23.90;99.90
13205;DHT22;6667;52.634;9.226;2023-06-14T18:01:28;23.90;99.90
13205;DHT22;6667;52.634;9.226;2023-06-14T18:03:56;23.80;99.90
13205;DHT22;6667;52.634;9.226;2023-06-14T18:06:23;23.80;99.90
13205;DHT22;6667;52.634;9.226;2023-06-14T18:08:51;23.60;99.90
13205;DHT22;6667;52.634;9.226;2023-06-14T18:11:18;23.50;99.90
13205;DHT22;6667;52.634;9.226;2023-06-14T18:13:46;23.40;99.90
13205;DHT22;6667;52.634;9.226;2023-06-14T18:16:15;23.40;99.90
13205;DHT22;6667;52.634;9.226;2023-06-14T18:18:45;23.30;99.90
13205;DHT22;6667;52.634;9.226;2023-06-14T18:21:14;23.20;99.90
13205;DHT22;6667;52.634;9.226;2023-06-14T18:23:43;23.10;99.90
13205;DHT22;6667;52.634;9.226;2023-06-14T18:26:11;23.10;99.90
13205;DHT22;6667;52.634;9.226;2023-06-14T18:28:38;23.10;99.90
13205;DHT22;6667;52.634;9.226;2023-06-14T18:31:05;23.00;99.90
13205;DHT22;6667;52.634;9.226;2023-06-14T18:33:34;23.00;99.90
13205;DHT22;6667;52.634;9.226;2023-06-14T18:36:01;22.90;99.90
13205;DHT22;6667;52.634;9.226;2023-06-14T18:38:29;22.90;99.90
13205;DHT22;6667;52.634;9.226;2023-06-14T18:40:59;22.90;99.90
13205;DHT22;6667;52.634;9.226;2023-06-14T18:43:29;22.80;99.90
13205;DHT22;6667;52.634;9.226;2023-06-14T18:45:58;22.80;99.90
13205;DHT22;6667;52.634;9.226;2023-06-14T18:48:26;22.70;99.90
13205;DHT22;6667;52.634;9.226;2023-06-14T18:50:56;22.70;99.90
13205;DHT22;6667;52.634;9.226;2023-06-14T18:53:23;22.60;99.90
13205;DHT22;6667;52.634;9.226;2023-06-14T18:55:53;22.50;99.90
13205;DHT22;6667;52.634;9.226;2023-06-14T18:58:20;22.40;99.90
13205;DHT22;6667;52.634;9.226;2023-06-14T19:00:48;22.40;99.90
13205;DHT22;6667;52.634;9.226;2023-06-14T19:03:16;22.30;99.90
13205;DHT22;6667;52.634;9.226;2023-06-14T19:05:42;22.30;99.90
13205;DHT22;6667;52.634;9.226;2023-06-14T19:08:11;22.20;99.90
13205;DHT22;6667;52.634;9.226;2023-06-14T19:10:38;22.20;99.90
13205;DHT22;6667;52.634;9.226;2023-06-14T19:13:05;22.10;99.90
13205;DHT22;6667;52.634;9.226;2023-06-14T19:15:36;22.00;99.90
13205;DHT22;6667;52.634;9.226;2023-06-14T19:18:03;22.00;99.90
13205;DHT22;6667;52.634;9.226;2023-06-14T19:20:32;21.90;99.90
13205;DHT22;6667;52.634;9.226;2023-06-14T19:22:59;21.80;99.90
13205;DHT22;6667;52.634;9.226;2023-06-14T19:25:30;21.80;99.90
13205;DHT22;6667;52.634;9.226;2023-06-14T19:27:58;21.80;99.90
13205;DHT22;6667;52.634;9.226;2023-06-14T19:30:26;21.70;99.90
13205;DHT22;6667;52.634;9.226;2023-06-14T19:32:53;21.50;99.90
13205;DHT22;6667;52.634;9.226;2023-06-14T19:35:20;21.50;99.90
13205;DHT22;6667;52.634;9.226;2023-06-14T19:37:48;21.40;99.90
13205;DHT22;6667;52.634;9.226;2023-06-14T19:40:15;21.40;99.90
13205;DHT22;6667;52.634;9.226;2023-06-14T19:42:45;21.30;99.90
13205;DHT22;6667;52.634;9.226;2023-06-14T19:45:12;21.30;99.90
13205;DHT22;6667;52.634;9.226;2023-06-14T19:47:39;21.20;99.90
13205;DHT22;6667;52.634;9.226;2023-06-14T19:50:07;21.10;99.90
13205;DHT22;6667;52.634;9.226;2023-06-14T19:52:35;21.10;99.90
13205;DHT22;6667;52.634;9.226;2023-06-14T19:55:02;21.00;99.90
13205;DHT22;6667;52.634;9.226;2023-06-14T19:57:30;21.00;99.90
13205;DHT22;6667;52.634;9.226;2023-06-14T19:59:59;20.90;99.90
13205;DHT22;6667;52.634;9.226;2023-06-14T20:02:29;20.90;99.90
13205;DHT22;6667;52.634;9.226;2023-06-14T20:04:57;20.70;99.90
13205;DHT22;6667;52.634;9.226;2023-06-14T20:07:25;20.70;99.90
13205;DHT22;6667;52.634;9.226;2023-06-14T20:09:53;20.60;99.90
13205;DHT22;6667;52.634;9.226;2023-06-14T20:12:21;20.60;99.90
13205;DHT22;6667;52.634;9.226;2023-06-14T20:14:50;20.50;99.90
13205;DHT22;6667;52.634;9.226;2023-06-14T20:17:21;20.40;99.90
13205;DHT22;6667;52.634;9.226;2023-06-14T20:19:49;20.40;99.90
13205;DHT22;6667;52.634;9.226;2023-06-14T20:22:18;20.30;99.90
13205;DHT22;6667;52.634;9.226;2023-06-14T20:24:46;20.20;99.90
13205;DHT22;6667;52.634;9.226;2023-06-14T20:27:13;20.20;99.90
13205;DHT22;6667;52.634;9.226;2023-06-14T20:29:41;20.10;99.90
13205;DHT22;6667;52.634;9.226;2023-06-14T20:32:09;20.00;99.90
13205;DHT22;6667;52.634;9.226;2023-06-14T20:34:38;19.90;99.90
13205;DHT22;6667;52.634;9.226;2023-06-14T20:37:05;19.90;99.90
13205;DHT22;6667;52.634;9.226;2023-06-14T20:39:32;19.80;99.90
13205;DHT22;6667;52.634;9.226;2023-06-14T20:42:00;19.80;99.90
13205;DHT22;6667;52.634;9.226;2023-06-14T20:44:28;19.70;99.90
13205;DHT22;6667;52.634;9.226;2023-06-14T20:46:56;19.60;99.90
13205;DHT22;6667;52.634;9.226;2023-06-14T20:49:24;19.50;99.90
13205;DHT22;6667;52.634;9.226;2023-06-14T20:51:55;19.50;99.90
13205;DHT22;6667;52.634;9.226;2023-06-14T20:54:23;19.40;99.90
13205;DHT22;6667;52.634;9.226;2023-06-14T20:56:51;19.40;99.90
13205;DHT22;6667;52.634;9.226;2023-06-14T20:59:18;19.30;99.90
13205;DHT22;6667;52.634;9.226;2023-06-14T21:01:46;19.30;99.90
13205;DHT22;6667;52.634;9.226;2023-06-14T21:04:13;19.30;99.90
13205;DHT22;6667;52.634;9.226;2023-06-14T21:06:42;19.20;99.90
13205;DHT22;6667;52.634;9.226;2023-06-14T21:09:11;19.10;99.90
13205;DHT22;6667;52.634;9.226;2023-06-14T21:11:39;19.10;99.90
13205;DHT22;6667;52.634;9.226;2023-06-14T21:14:06;19.00;99.90
13205;DHT22;6667;52.634;9.226;2023-06-14T21:16:37;19.00;99.90
13205;DHT22;6667;52.634;9.226;2023-06-14T21:19:05;18.90;99.90
13205;DHT22;6667;52.634;9.226;2023-06-14T21:21:32;18.90;99.90
13205;DHT22;6667;52.634;9.226;2023-06-14T21:23:59;18.80;99.90
13205;DHT22;6667;52.634;9.226;2023-06-14T21:26:27;18.80;99.90
13205;DHT22;6667;52.634;9.226;2023-06-14T21:28:55;18.70;99.90
13205;DHT22;6667;52.634;9.226;2023-06-14T21:31:22;18.60;99.90
13205;DHT22;6667;52.634;9.226;2023-06-14T21:33:51;18.60;99.90
13205;DHT22;6667;52.634;9.226;2023-06-14T21:36:19;18.50;99.90
13205;DHT22;6667;52.634;9.226;2023-06-14T21:38:49;18.40;99.90
13205;DHT22;6667;52.634;9.226;2023-06-14T21:41:20;18.40;99.90
13205;DHT22;6667;52.634;9.226;2023-06-14T21:43:52;18.40;99.90
13205;DHT22;6667;52.634;9.226;2023-06-14T21:46:22;18.40;99.90
13205;DHT22;6667;52.634;9.226;2023-06-14T21:48:50;18.30;99.90
13205;DHT22;6667;52.634;9.226;2023-06-14T21:51:19;18.30;99.90
13205;DHT22;6667;52.634;9.226;2023-06-14T21:53:48;18.30;99.90
13205;DHT22;6667;52.634;9.226;2023-06-14T21:56:17;18.30;99.90
13205;DHT22;6667;52.634;9.226;2023-06-14T21:58:46;18.30;99.90
13205;DHT22;6667;52.634;9.226;2023-06-14T22:01:16;18.20;99.90
13205;DHT22;6667;52.634;9.226;2023-06-14T22:03:43;18.20;99.90
13205;DHT22;6667;52.634;9.226;2023-06-14T22:06:11;18.20;99.90
13205;DHT22;6667;52.634;9.226;2023-06-14T22:08:39;18.10;99.90
13205;DHT22;6667;52.634;9.226;2023-06-14T22:11:07;18.10;99.90
13205;DHT22;6667;52.634;9.226;2023-06-14T22:13:36;18.10;99.90
13205;DHT22;6667;52.634;9.226;2023-06-14T22:16:04;18.00;99.90
13205;DHT22;6667;52.634;9.226;2023-06-14T22:18:38;18.00;99.90
